Time;durP1;ratioP1;P1;durP2;ratioP2;P2;SDS_P1;SDS_P2;PMS_P1;PMS_P2;Temp;Humidity;BMP_temperature;BMP_pressure;BME280_temperature;BME280_humidity;BME280_pressure;Samples;Min_cycle;Max_cycle;Signal;HPM_P1;HPM_P2
2022/06/10 00:00:56;;;;;;;2.30;1.30;;;11.20;99.90;;;;;;5048858;28;20819;-84
2022/06/10 00:03:25;;;;;;;3.70;1.60;;;11.20;99.90;;;;;;5048080;28;20770;-84
2022/06/10 00:05:54;;;;;;;2.80;1.67;;;11.10;99.90;;;;;;5049081;28;20420;-84
2022/06/10 00:08:24;;;;;;;2.17;1.20;;;11.10;99.90;;;;;;5049299;28;20420;-84
2022/06/10 00:10:51;;;;;;;2.87;1.63;;;11.10;99.90;;;;;;5032024;28;20549;-84
2022/06/10 00:13:18;;;;;;;3.20;1.27;;;11.10;99.90;;;;;;5056616;28;20431;-84
2022/06/10 00:15:44;;;;;;;1.90;1.10;;;11.00;99.90;;;;;;5070643;28;20469;-84
2022/06/10 00:18:10;;;;;;;3.60;1.90;;;11.00;99.90;;;;;;5070643;28;20681;-84
2022/06/10 00:20:37;;;;;;;4.20;1.20;;;11.00;99.90;;;;;;5070277;28;20454;-84
2022/06/10 00:23:03;;;;;;;2.33;1.30;;;10.90;99.90;;;;;;5069876;28;20435;-84
2022/06/10 00:25:29;;;;;;;13.70;1.40;;;10.90;99.90;;;;;;5070222;28;20415;-84
2022/06/10 00:27:55;;;;;;;6.37;1.83;;;10.90;99.90;;;;;;5070517;28;20412;-83
2022/06/10 00:30:23;;;;;;;3.80;1.77;;;11.00;99.90;;;;;;5070976;28;20192;-83
2022/06/10 00:32:49;;;;;;;2.30;1.37;;;10.90;99.90;;;;;;5071570;28;20411;-83
2022/06/10 00:35:15;;;;;;;2.20;1.23;;;10.90;99.90;;;;;;5098555;28;20457;-84
2022/06/10 00:37:41;;;;;;;4.70;1.60;;;10.80;99.90;;;;;;5070260;28;20174;-84
2022/06/10 00:40:15;;;;;;;4.77;1.70;;;10.80;99.90;;;;;;5069573;28;20201;-84
2022/06/10 00:42:40;;;;;;;6.70;1.57;;;10.80;99.90;;;;;;5069008;28;20637;-83
2022/06/10 00:45:26;;;;;;;9.37;2.07;;;10.70;99.90;;;;;;5068279;28;20419;-83
2022/06/10 00:47:54;;;;;;;4.40;1.50;;;10.80;99.90;;;;;;5068289;28;20173;-83
2022/06/10 00:50:28;;;;;;;3.50;1.60;;;10.80;99.90;;;;;;5069909;28;20877;-83
2022/06/10 00:53:00;;;;;;;4.30;2.20;;;10.70;99.90;;;;;;5072158;28;20410;-84
2022/06/10 00:55:30;;;;;;;2.20;1.20;;;10.70;99.90;;;;;;5072321;28;20835;-84
2022/06/10 00:58:34;;;;;;;5.60;1.83;;;10.60;99.90;;;;;;5071968;28;20467;-84
2022/06/10 01:01:01;;;;;;;3.67;1.17;;;10.60;99.90;;;;;;5072168;28;20754;-84
2022/06/10 01:03:27;;;;;;;7.40;1.87;;;10.60;99.90;;;;;;5053686;28;20789;-84
2022/06/10 01:05:53;;;;;;;4.00;2.33;;;10.60;99.90;;;;;;5072050;28;20419;-84
2022/06/10 01:08:21;;;;;;;2.20;1.20;;;10.50;99.90;;;;;;5070599;28;20204;-84
2022/06/10 01:10:49;;;;;;;3.13;1.43;;;10.50;99.90;;;;;;5071265;28;20255;-83
2022/06/10 01:13:50;;;;;;;2.10;1.50;;;10.50;99.90;;;;;;5070603;28;20419;-83
2022/06/10 01:16:34;;;;;;;11.40;1.67;;;10.50;99.90;;;;;;5071175;28;20468;-84
2022/06/10 01:19:22;;;;;;;3.70;1.97;;;10.40;99.90;;;;;;5070698;28;20458;-84
2022/06/10 01:21:57;;;;;;;5.27;1.70;;;10.40;99.90;;;;;;5071059;28;20396;-84
2022/06/10 01:24:42;;;;;;;3.13;1.87;;;10.40;99.90;;;;;;5070834;28;20762;-83
2022/06/10 01:27:48;;;;;;;3.07;1.37;;;10.30;99.90;;;;;;5070976;28;20848;-84
2022/06/10 01:30:28;;;;;;;5.20;1.63;;;10.20;99.90;;;;;;5071022;28;20421;-84
2022/06/10 01:33:19;;;;;;;3.50;1.97;;;10.20;99.90;;;;;;5072889;28;20914;-83
2022/06/10 01:36:36;;;;;;;12.70;1.17;;;10.20;99.90;;;;;;5057720;28;20858;-84
2022/06/10 01:39:23;;;;;;;3.03;1.93;;;10.20;99.90;;;;;;5025523;28;20471;-83
2022/06/10 01:42:00;;;;;;;3.17;1.70;;;10.10;99.90;;;;;;5070434;28;20746;-83
2022/06/10 01:44:39;;;;;;;4.13;1.53;;;10.30;99.90;;;;;;5070607;28;20490;-83
2022/06/10 01:47:15;;;;;;;3.20;1.20;;;10.20;99.90;;;;;;5070141;28;20404;-83
2022/06/10 01:50:06;;;;;;;2.70;1.73;;;10.10;99.90;;;;;;5070708;28;20499;-84
2022/06/10 01:52:50;;;;;;;2.97;1.33;;;10.00;99.90;;;;;;5070273;28;20432;-84
2022/06/10 01:55:47;;;;;;;9.63;2.20;;;10.00;99.90;;;;;;5070381;28;20411;-83
2022/06/10 01:58:42;;;;;;;2.00;1.20;;;10.00;99.90;;;;;;5052075;28;20902;-84
2022/06/10 02:01:16;;;;;;;2.23;1.13;;;9.90;99.90;;;;;;5070358;28;20396;-84
2022/06/10 02:04:09;;;;;;;5.73;1.90;;;9.90;99.90;;;;;;5068784;28;20422;-83
2022/06/10 02:06:43;;;;;;;3.50;1.47;;;9.90;99.90;;;;;;5061153;28;20446;-83
2022/06/10 02:09:17;;;;;;;2.67;1.33;;;9.80;99.90;;;;;;5069904;28;20414;-83
2022/06/10 02:11:50;;;;;;;3.60;1.43;;;9.80;99.90;;;;;;5069813;28;20498;-84
2022/06/10 02:14:27;;;;;;;5.60;1.87;;;9.80;99.90;;;;;;5069809;28;20407;-84
2022/06/10 02:16:55;;;;;;;6.63;1.63;;;9.80;99.90;;;;;;5069672;28;20453;-84
2022/06/10 02:19:53;;;;;;;4.00;1.67;;;9.80;99.90;;;;;;5069854;28;20451;-84
2022/06/10 02:22:24;;;;;;;6.93;2.30;;;9.80;99.90;;;;;;5053919;28;20469;-84
2022/06/10 02:24:55;;;;;;;4.63;2.03;;;9.70;99.90;;;;;;5069833;28;20459;-83
2022/06/10 02:27:27;;;;;;;2.90;1.40;;;9.80;99.90;;;;;;5051756;28;20958;-84
2022/06/10 02:30:10;;;;;;;8.43;1.80;;;9.70;99.90;;;;;;5069798;28;20411;-83
2022/06/10 02:32:38;;;;;;;4.90;2.10;;;9.70;99.90;;;;;;5069673;28;20474;-83
2022/06/10 02:35:06;;;;;;;3.20;1.60;;;9.60;99.90;;;;;;5054874;28;20845;-83
2022/06/10 02:37:52;;;;;;;4.87;1.87;;;9.60;99.90;;;;;;5089692;28;20404;-83
2022/06/10 02:40:26;;;;;;;4.60;1.83;;;9.70;99.90;;;;;;5090378;28;20455;-83
2022/06/10 02:43:15;;;;;;;4.00;1.57;;;9.60;99.90;;;;;;5086035;28;20414;-84
2022/06/10 02:45:51;;;;;;;9.30;2.60;;;9.60;99.90;;;;;;5022427;28;20431;-83
2022/06/10 02:48:35;;;;;;;2.87;1.40;;;9.60;99.90;;;;;;5069438;28;20518;-84
2022/06/10 02:51:01;;;;;;;3.50;2.07;;;9.60;99.90;;;;;;5051812;28;20802;-83
2022/06/10 02:53:28;;;;;;;2.20;1.60;;;9.60;99.90;;;;;;5089195;28;20433;-84
2022/06/10 02:55:54;;;;;;;11.30;2.00;;;9.60;99.90;;;;;;5089426;28;20172;-84
2022/06/10 03:01:20;;;;;;;3.47;1.90;;;9.50;99.90;;;;;;5089312;28;20215;-84
2022/06/10 03:03:58;;;;;;;12.23;1.90;;;9.50;99.90;;;;;;5083143;28;20419;-84
2022/06/10 03:06:29;;;;;;;4.30;1.80;;;9.50;99.90;;;;;;5068811;28;20414;-84
2022/06/10 03:09:16;;;;;;;8.40;1.57;;;9.50;99.90;;;;;;5069394;28;21061;-84
2022/06/10 03:12:12;;;;;;;2.77;1.30;;;9.50;99.90;;;;;;5068552;28;20415;-84
2022/06/10 03:14:55;;;;;;;11.40;1.80;;;9.50;99.90;;;;;;5068515;28;20873;-84
2022/06/10 03:17:41;;;;;;;10.00;2.00;;;9.50;99.90;;;;;;5068659;28;20469;-84
2022/06/10 03:20:20;;;;;;;4.87;1.50;;;9.50;99.90;;;;;;5050887;28;20965;-84
2022/06/10 03:22:51;;;;;;;6.10;1.93;;;9.50;99.90;;;;;;5068503;28;20442;-84
2022/06/10 03:25:33;;;;;;;5.43;2.50;;;9.50;99.90;;;;;;5069269;28;20520;-84
2022/06/10 03:28:25;;;;;;;4.37;2.00;;;9.40;99.90;;;;;;5069186;28;20412;-84
2022/06/10 03:30:54;;;;;;;4.70;2.10;;;9.40;99.90;;;;;;5069098;28;20483;-84
2022/06/10 03:33:42;;;;;;;6.23;2.57;;;9.30;99.90;;;;;;5068657;28;20419;-84
2022/06/10 03:36:17;;;;;;;3.83;2.37;;;9.30;99.90;;;;;;5068723;28;20498;-84
2022/06/10 03:38:46;;;;;;;3.77;2.00;;;9.30;99.90;;;;;;5067976;28;20419;-84
2022/06/10 03:41:25;;;;;;;3.80;1.67;;;9.40;99.90;;;;;;5068062;28;20514;-84
2022/06/10 03:43:53;;;;;;;4.57;2.00;;;9.30;99.90;;;;;;5068214;28;20497;-84
2022/06/10 03:46:22;;;;;;;3.90;1.77;;;9.30;99.90;;;;;;5067764;28;20424;-84
2022/06/10 03:48:49;;;;;;;3.33;2.07;;;9.30;99.90;;;;;;5068310;28;20854;-84
2022/06/10 03:51:16;;;;;;;2.50;1.60;;;9.40;99.90;;;;;;5068052;28;20431;-84
2022/06/10 03:53:42;;;;;;;4.03;1.80;;;9.40;99.90;;;;;;5068017;28;20472;-84
2022/06/10 03:56:09;;;;;;;3.00;1.80;;;9.30;99.90;;;;;;5068267;28;20427;-84
2022/06/10 03:58:35;;;;;;;3.93;1.73;;;9.30;99.90;;;;;;5067792;28;20219;-84
2022/06/10 04:01:00;;;;;;;3.43;1.83;;;9.40;99.90;;;;;;5067899;28;20450;-84
2022/06/10 04:03:26;;;;;;;6.43;1.70;;;9.40;99.90;;;;;;5066425;28;20641;-84
2022/06/10 04:05:52;;;;;;;5.83;1.80;;;9.40;99.90;;;;;;5068219;28;20181;-84
2022/06/10 04:08:17;;;;;;;2.73;1.80;;;9.50;99.90;;;;;;5067968;28;20185;-84
2022/06/10 04:10:43;;;;;;;4.50;2.07;;;9.50;99.90;;;;;;5068367;28;20640;-84
2022/06/10 04:13:10;;;;;;;10.20;2.20;;;9.50;99.90;;;;;;5067803;28;20211;-84
2022/06/10 04:15:36;;;;;;;6.23;2.50;;;9.60;99.90;;;;;;5068385;28;20645;-84
2022/06/10 04:18:04;;;;;;;9.47;2.60;;;9.70;99.90;;;;;;5067761;28;20502;-84
2022/06/10 04:20:36;;;;;;;3.63;1.77;;;9.70;99.90;;;;;;5068253;28;20463;-84
2022/06/10 04:23:03;;;;;;;8.17;2.27;;;9.80;99.90;;;;;;5067664;28;20423;-84
2022/06/10 04:25:29;;;;;;;3.80;1.60;;;9.80;99.90;;;;;;5069721;28;20460;-84
2022/06/10 04:27:55;;;;;;;5.33;2.37;;;9.90;99.90;;;;;;5071775;28;20884;-84
2022/06/10 04:30:22;;;;;;;3.60;1.40;;;9.90;99.90;;;;;;5071806;28;20416;-84
2022/06/10 04:32:49;;;;;;;11.87;1.83;;;10.00;99.90;;;;;;5071500;28;20185;-84
2022/06/10 04:35:14;;;;;;;11.10;2.23;;;10.10;99.90;;;;;;5071651;28;20427;-84
2022/06/10 04:37:40;;;;;;;12.47;2.07;;;10.10;99.90;;;;;;5071479;28;20775;-84
2022/06/10 04:40:06;;;;;;;7.20;1.87;;;10.10;99.90;;;;;;5071608;28;20205;-84
2022/06/10 04:42:32;;;;;;;5.73;2.13;;;10.20;99.90;;;;;;5071393;28;20181;-84
2022/06/10 04:44:58;;;;;;;4.30;1.70;;;10.30;99.90;;;;;;5071230;28;21112;-84
2022/06/10 04:47:24;;;;;;;4.67;2.30;;;10.30;99.90;;;;;;5070635;28;20177;-84
2022/06/10 04:49:49;;;;;;;17.13;2.53;;;10.40;99.90;;;;;;5071336;28;20658;-84
2022/06/10 04:52:15;;;;;;;3.67;1.80;;;10.50;99.90;;;;;;5071238;28;20527;-84
2022/06/10 04:54:41;;;;;;;2.90;1.23;;;10.50;99.90;;;;;;5071373;28;20204;-84
2022/06/10 04:57:06;;;;;;;7.77;1.90;;;10.70;99.90;;;;;;5070937;28;20727;-85
2022/06/10 04:59:32;;;;;;;4.63;2.27;;;10.70;99.90;;;;;;5070879;28;20287;-84
2022/06/10 05:01:58;;;;;;;12.90;2.27;;;10.80;99.90;;;;;;5071194;28;20230;-85
2022/06/10 05:04:23;;;;;;;9.60;2.00;;;10.80;99.90;;;;;;5051945;28;20283;-84
2022/06/10 05:06:50;;;;;;;3.87;1.90;;;10.90;99.90;;;;;;5070664;28;20213;-85
2022/06/10 05:09:16;;;;;;;18.73;1.80;;;10.90;99.90;;;;;;5070795;28;20753;-85
2022/06/10 05:11:41;;;;;;;14.27;2.43;;;11.00;99.90;;;;;;5052285;28;20402;-85
2022/06/10 05:14:07;;;;;;;6.10;2.60;;;11.10;99.90;;;;;;5070773;28;20223;-85
2022/06/10 05:16:32;;;;;;;5.20;2.23;;;11.10;99.90;;;;;;5070672;28;20208;-85
2022/06/10 05:18:58;;;;;;;13.40;2.00;;;11.20;99.90;;;;;;5070968;28;20185;-85
2022/06/10 05:21:24;;;;;;;3.80;1.70;;;11.30;99.90;;;;;;5070574;28;20181;-84
2022/06/10 05:23:50;;;;;;;5.87;2.07;;;11.30;99.90;;;;;;5070575;28;20228;-85
2022/06/10 05:26:16;;;;;;;4.50;1.70;;;11.40;99.90;;;;;;5070330;28;20647;-85
2022/06/10 05:28:42;;;;;;;2.97;1.83;;;11.50;99.90;;;;;;5070824;28;20177;-85
2022/06/10 05:31:07;;;;;;;3.33;2.10;;;11.50;99.90;;;;;;5070571;28;20428;-84
2022/06/10 05:36:18;;;;;;;4.20;1.43;;;11.60;99.90;;;;;;5069862;28;20315;-85
2022/06/10 05:38:44;;;;;;;2.53;1.53;;;11.70;99.90;;;;;;5069639;28;20423;-85
2022/06/10 05:43:55;;;;;;;2.40;1.30;;;11.90;99.90;;;;;;5070680;28;20494;-85
2022/06/10 05:46:20;;;;;;;5.50;2.07;;;12.00;99.90;;;;;;5070159;28;20893;-85
2022/06/10 05:48:46;;;;;;;4.10;1.83;;;12.20;99.90;;;;;;5070093;28;20606;-85
2022/06/10 05:51:12;;;;;;;2.37;1.33;;;12.20;99.90;;;;;;5069794;28;20616;-85
2022/06/10 05:53:38;;;;;;;5.43;1.33;;;12.30;99.90;;;;;;5069750;28;20188;-85
2022/06/10 05:56:03;;;;;;;4.90;1.43;;;12.40;99.90;;;;;;5070078;28;20184;-85
2022/06/10 05:58:30;;;;;;;4.80;1.40;;;12.50;99.90;;;;;;5051928;28;20268;-85
2022/06/10 06:00:56;;;;;;;5.77;1.53;;;12.50;99.90;;;;;;5070232;28;20540;-85
2022/06/10 06:03:22;;;;;;;3.77;1.33;;;12.70;99.90;;;;;;5068502;28;20411;-84
2022/06/10 06:05:47;;;;;;;3.30;1.30;;;12.70;99.90;;;;;;5069778;28;20177;-85
2022/06/10 06:08:13;;;;;;;4.17;1.37;;;12.80;99.90;;;;;;5069750;28;20494;-86
2022/06/10 06:10:39;;;;;;;7.60;2.60;;;13.00;99.90;;;;;;5070072;28;20204;-85
2022/06/10 06:13:05;;;;;;;3.70;1.47;;;13.10;99.90;;;;;;5069833;28;20176;-85
2022/06/10 06:15:31;;;;;;;3.70;1.33;;;13.10;99.90;;;;;;5069438;28;20945;-85
2022/06/10 06:17:56;;;;;;;4.03;1.53;;;13.20;99.90;;;;;;5068495;28;20706;-85
2022/06/10 06:20:24;;;;;;;7.07;1.43;;;13.20;99.90;;;;;;5069376;28;21131;-85
2022/06/10 06:22:50;;;;;;;2.27;1.20;;;13.20;99.90;;;;;;5069470;28;20181;-85
2022/06/10 06:25:17;;;;;;;2.77;1.47;;;13.30;99.90;;;;;;5069262;28;20791;-85
2022/06/10 06:27:45;;;;;;;13.83;1.90;;;13.40;99.90;;;;;;5069075;28;20412;-85
2022/06/10 06:30:21;;;;;;;2.07;1.20;;;13.50;99.90;;;;;;5069424;28;20411;-85
2022/06/10 06:32:47;;;;;;;19.27;2.33;;;13.50;99.90;;;;;;5069209;28;20597;-85
2022/06/10 06:35:13;;;;;;;5.33;1.60;;;13.70;99.90;;;;;;5069213;28;20430;-85
2022/06/10 06:37:39;;;;;;;4.30;2.03;;;13.80;99.90;;;;;;5074333;28;20434;-85
2022/06/10 06:40:05;;;;;;;4.00;1.47;;;13.80;99.90;;;;;;5081341;28;20224;-86
2022/06/10 06:42:30;;;;;;;16.63;3.33;;;13.90;99.90;;;;;;5089827;28;20402;-85
2022/06/10 06:44:56;;;;;;;3.20;1.23;;;14.00;99.90;;;;;;5089227;28;20419;-85
2022/06/10 06:47:22;;;;;;;1.70;0.77;;;14.10;99.90;;;;;;5089386;28;20179;-85
2022/06/10 06:49:47;;;;;;;3.93;1.47;;;14.20;99.90;;;;;;5089215;28;20306;-85
2022/06/10 06:52:13;;;;;;;4.30;1.80;;;14.30;99.90;;;;;;5061699;28;20471;-85
2022/06/10 06:54:38;;;;;;;3.43;1.37;;;14.50;99.90;;;;;;5069751;28;20177;-85
2022/06/10 06:57:05;;;;;;;2.73;1.37;;;14.60;99.90;;;;;;5069482;28;20185;-85
2022/06/10 06:59:32;;;;;;;2.70;1.60;;;14.70;99.90;;;;;;5069089;28;20204;-85
2022/06/10 07:01:58;;;;;;;4.00;1.40;;;14.90;99.90;;;;;;5051196;28;20419;-85
2022/06/10 07:04:23;;;;;;;6.40;1.30;;;15.00;99.90;;;;;;5068519;28;20951;-85
2022/06/10 07:06:49;;;;;;;3.97;1.37;;;15.30;99.90;;;;;;5050862;28;20599;-85
2022/06/10 07:09:15;;;;;;;4.40;1.53;;;15.50;99.90;;;;;;5050855;28;20223;-85
2022/06/10 07:11:41;;;;;;;3.10;1.43;;;15.60;99.90;;;;;;5068921;28;20264;-85
2022/06/10 07:14:07;;;;;;;4.17;1.30;;;15.80;99.90;;;;;;5050887;28;20189;-85
2022/06/10 07:16:33;;;;;;;3.50;1.20;;;16.00;99.90;;;;;;5068626;28;20918;-85
2022/06/10 07:18:59;;;;;;;4.57;1.70;;;16.20;99.90;;;;;;5068623;28;20419;-85
2022/06/10 07:21:26;;;;;;;2.03;1.17;;;16.50;99.90;;;;;;5068278;28;20423;-85
2022/06/10 07:23:51;;;;;;;2.77;1.03;;;16.90;99.90;;;;;;5068795;28;20541;-85
2022/06/10 07:26:17;;;;;;;2.37;1.17;;;17.40;99.90;;;;;;5068571;28;20453;-85
2022/06/10 07:28:43;;;;;;;7.10;1.80;;;17.90;98.70;;;;;;5068578;28;20180;-85
2022/06/10 07:31:08;;;;;;;3.63;1.40;;;18.20;97.80;;;;;;5068925;28;20181;-86
2022/06/10 07:33:35;;;;;;;3.40;1.00;;;18.60;97.20;;;;;;5068533;28;20283;-86
2022/06/10 07:36:02;;;;;;;4.90;1.63;;;18.80;96.50;;;;;;5068630;28;20185;-86
2022/06/10 07:38:28;;;;;;;4.40;1.30;;;19.50;95.40;;;;;;5068838;28;20431;-84
2022/06/10 07:43:39;;;;;;;4.10;1.10;;;21.10;92.30;;;;;;5068768;28;20481;-85
2022/06/10 07:46:08;;;;;;;3.37;1.10;;;22.40;91.20;;;;;;5068719;28;20468;-84
2022/06/10 07:48:34;;;;;;;2.10;0.80;;;23.50;86.50;;;;;;5068203;28;20183;-84
2022/06/10 07:50:59;;;;;;;3.88;0.95;;;23.50;85.50;;;;;;5068849;28;20271;-84
2022/06/10 07:53:25;;;;;;;3.50;1.45;;;24.70;83.70;;;;;;5087495;28;20178;-84
2022/06/10 07:55:51;;;;;;;5.15;1.17;;;25.30;78.70;;;;;;5089060;28;20172;-84
2022/06/10 07:58:18;;;;;;;10.48;1.90;;;25.30;79.60;;;;;;5088275;28;20172;-84
2022/06/10 08:00:44;;;;;;;6.63;1.45;;;26.60;73.80;;;;;;5088092;28;20546;-84
2022/06/10 08:03:11;;;;;;;15.77;1.65;;;25.40;76.20;;;;;;5088170;28;20221;-83
2022/06/10 08:05:37;;;;;;;2.63;1.20;;;25.50;75.20;;;;;;5088000;28;20172;-84
2022/06/10 08:08:04;;;;;;;4.32;1.10;;;24.90;75.30;;;;;;5077707;28;20192;-83
2022/06/10 08:10:34;;;;;;;17.67;1.50;;;25.10;76.20;;;;;;5068472;28;20656;-84
2022/06/10 08:12:59;;;;;;;7.55;1.92;;;25.10;74.70;;;;;;5068506;28;20175;-84
2022/06/10 08:15:27;;;;;;;11.15;1.48;;;25.30;75.20;;;;;;5068721;28;20180;-84
2022/06/10 08:17:53;;;;;;;6.40;1.40;;;25.50;72.70;;;;;;5067983;28;20192;-84
2022/06/10 08:23:30;;;;;;;2.53;0.93;;;25.60;73.20;;;;;;5068115;28;20198;-84
2022/06/10 08:25:58;;;;;;;4.70;1.40;;;26.20;71.20;;;;;;5067955;28;20636;-83
2022/06/10 08:28:24;;;;;;;3.28;1.27;;;25.80;70.10;;;;;;5067655;28;20187;-84
2022/06/10 08:30:50;;;;;;;3.45;1.70;;;26.80;67.70;;;;;;5066195;28;20188;-83
2022/06/10 08:33:16;;;;;;;4.20;1.60;;;27.00;66.00;;;;;;5078645;28;20183;-83
2022/06/10 08:35:42;;;;;;;3.53;1.00;;;26.90;65.00;;;;;;5077293;28;20239;-83
2022/06/10 08:38:10;;;;;;;4.38;1.25;;;26.30;66.90;;;;;;5067777;28;20916;-84
2022/06/10 08:40:39;;;;;;;4.97;1.20;;;25.80;67.00;;;;;;5067881;28;20227;-83
2022/06/10 08:43:41;;;;;;;2.38;1.00;;;26.00;64.80;;;;;;5067720;28;20177;-84
2022/06/10 08:46:25;;;;;;;4.28;1.15;;;25.70;68.60;;;;;;5049876;28;20204;-83
2022/06/10 08:49:06;;;;;;;3.38;1.40;;;26.10;68.40;;;;;;5067724;28;20172;-83
2022/06/10 08:51:48;;;;;;;3.85;1.42;;;25.60;69.80;;;;;;5071237;28;20168;-83
2022/06/10 08:54:24;;;;;;;9.20;1.60;;;25.20;68.90;;;;;;5088133;28;20172;-83
2022/06/10 08:56:53;;;;;;;10.30;1.23;;;25.40;66.00;;;;;;5087625;28;20179;-83
2022/06/10 08:59:28;;;;;;;2.80;0.60;;;25.80;64.20;;;;;;5087714;28;20675;-83
2022/06/10 09:02:03;;;;;;;3.15;0.80;;;25.60;65.50;;;;;;5082981;28;20644;-84
2022/06/10 09:04:38;;;;;;;2.92;0.73;;;25.70;65.60;;;;;;5066357;28;20156;-83
2022/06/10 09:07:11;;;;;;;2.67;1.02;;;25.60;68.40;;;;;;5067593;28;20168;-84
2022/06/10 09:09:40;;;;;;;8.18;1.52;;;26.00;70.80;;;;;;5067330;28;20652;-84
2022/06/10 09:12:18;;;;;;;3.28;1.10;;;25.90;69.80;;;;;;5068157;28;20267;-83
2022/06/10 09:14:44;;;;;;;3.50;1.58;;;26.10;70.80;;;;;;5070844;28;20176;-82
2022/06/10 09:17:20;;;;;;;4.20;1.30;;;25.50;68.70;;;;;;5070625;28;20180;-83
2022/06/10 09:20:09;;;;;;;6.45;2.28;;;25.00;68.00;;;;;;5070638;28;20668;-83
2022/06/10 09:23:04;;;;;;;2.50;1.02;;;25.00;68.80;;;;;;5070387;28;20195;-83
2022/06/10 09:25:37;;;;;;;5.20;1.35;;;25.80;66.50;;;;;;5070642;28;20173;-84
2022/06/10 09:28:04;;;;;;;3.47;1.33;;;25.40;70.00;;;;;;5070570;28;20161;-83
2022/06/10 09:31:01;;;;;;;9.10;1.80;;;25.00;68.20;;;;;;5070630;28;20181;-83
2022/06/10 09:33:30;;;;;;;4.03;1.35;;;24.80;70.60;;;;;;5062707;28;20714;-84
2022/06/10 09:36:33;;;;;;;2.80;1.30;;;24.70;71.50;;;;;;5070468;28;20269;-84
2022/06/10 09:39:01;;;;;;;1.45;0.60;;;25.20;69.50;;;;;;5002862;28;20307;-85
2022/06/10 09:42:01;;;;;;;3.85;0.88;;;25.30;70.40;;;;;;5070678;28;20173;-87
2022/06/10 09:44:29;;;;;;;3.47;1.15;;;25.90;68.80;;;;;;5070884;28;20207;-86
2022/06/10 09:47:08;;;;;;;14.15;1.50;;;26.10;65.50;;;;;;5052017;28;20181;-86
2022/06/10 09:49:49;;;;;;;3.80;1.70;;;26.20;65.50;;;;;;5071217;28;20165;-85
2022/06/10 09:52:21;;;;;;;2.35;1.42;;;26.00;69.50;;;;;;5070270;28;20168;-86
2022/06/10 09:55:07;;;;;;;4.25;1.02;;;25.50;69.40;;;;;;5052388;28;20173;-85
2022/06/10 09:57:47;;;;;;;3.70;1.63;;;25.20;68.50;;;;;;5055650;28;20712;-85
2022/06/10 10:00:27;;;;;;;6.22;1.60;;;25.30;66.70;;;;;;5052421;28;20216;-85
2022/06/10 10:03:17;;;;;;;4.53;1.52;;;25.20;67.50;;;;;;5069717;28;20292;-85
2022/06/10 10:05:51;;;;;;;3.30;0.98;;;24.90;66.90;;;;;;5069985;28;20157;-85
2022/06/10 10:08:26;;;;;;;2.95;1.10;;;24.70;67.80;;;;;;5070165;28;20255;-85
2022/06/10 10:10:51;;;;;;;4.93;1.50;;;24.90;70.10;;;;;;5070283;28;20180;-84
2022/06/10 10:13:20;;;;;;;1.90;0.88;;;24.80;68.80;;;;;;5069796;28;20180;-84
2022/06/10 10:16:06;;;;;;;2.00;1.00;;;24.60;67.20;;;;;;5070065;28;20177;-85
2022/06/10 10:18:48;;;;;;;8.82;1.65;;;24.60;69.50;;;;;;5069596;28;20267;-85
2022/06/10 10:21:27;;;;;;;5.75;1.02;;;24.80;70.20;;;;;;5071389;28;20200;-85
2022/06/10 10:23:56;;;;;;;2.30;0.82;;;24.50;67.90;;;;;;5064872;28;20288;-87
2022/06/10 10:26:26;;;;;;;4.60;1.27;;;24.50;69.80;;;;;;5093836;28;20204;-84
2022/06/10 10:29:11;;;;;;;4.27;1.30;;;24.20;70.50;;;;;;5093913;28;20191;-84
2022/06/10 10:31:59;;;;;;;2.70;1.20;;;23.80;71.00;;;;;;5074614;28;20200;-84
2022/06/10 10:34:29;;;;;;;3.10;1.20;;;23.70;69.80;;;;;;5069811;28;20426;-84
2022/06/10 10:37:04;;;;;;;4.40;1.17;;;23.50;71.10;;;;;;5069491;28;20421;-84
2022/06/10 10:39:34;;;;;;;2.83;0.93;;;23.50;71.90;;;;;;5069421;28;20454;-83
2022/06/10 10:42:16;;;;;;;8.70;1.20;;;23.10;72.60;;;;;;5069626;28;20879;-84
2022/06/10 10:44:46;;;;;;;2.67;0.90;;;23.20;72.90;;;;;;5070016;28;20421;-84
2022/06/10 10:47:12;;;;;;;3.83;1.07;;;23.30;75.50;;;;;;5050911;28;20646;-84
2022/06/10 10:49:48;;;;;;;6.50;1.40;;;23.30;70.60;;;;;;5069850;28;20981;-85
2022/06/10 10:52:21;;;;;;;1.90;0.93;;;23.40;71.70;;;;;;5051074;28;20215;-85
2022/06/10 10:54:52;;;;;;;5.80;1.40;;;23.50;69.20;;;;;;5069306;28;20414;-84
2022/06/10 10:57:31;;;;;;;16.83;1.20;;;23.30;71.10;;;;;;5069297;28;20410;-85
2022/06/10 11:00:15;;;;;;;1.90;0.93;;;23.00;70.80;;;;;;5069590;28;20824;-84
2022/06/10 11:02:51;;;;;;;2.00;0.87;;;23.40;69.20;;;;;;5068946;28;20426;-84
2022/06/10 11:05:36;;;;;;;8.40;0.80;;;23.60;68.40;;;;;;5067697;28;20456;-86
2022/06/10 11:08:13;;;;;;;7.33;1.03;;;23.50;68.20;;;;;;5068930;28;20440;-85
2022/06/10 11:11:05;;;;;;;3.93;0.87;;;23.40;67.40;;;;;;5068927;28;20429;-84
2022/06/10 11:13:59;;;;;;;5.87;1.30;;;23.40;68.40;;;;;;5058437;28;20423;-84
2022/06/10 11:16:27;;;;;;;2.83;1.03;;;23.20;67.90;;;;;;5069144;28;20399;-84
2022/06/10 11:19:12;;;;;;;12.13;1.33;;;23.30;68.60;;;;;;5068709;28;20411;-84
2022/06/10 11:22:09;;;;;;;4.03;1.27;;;23.10;70.50;;;;;;5069040;28;20402;-85
2022/06/10 11:24:45;;;;;;;1.60;0.60;;;23.10;69.30;;;;;;5069153;28;20399;-85
2022/06/10 11:27:31;;;;;;;1.63;0.90;;;23.30;69.20;;;;;;5070149;28;20784;-84
2022/06/10 11:30:20;;;;;;;1.87;0.77;;;23.10;70.60;;;;;;5081536;28;20414;-84
2022/06/10 11:32:48;;;;;;;6.30;1.00;;;22.80;71.10;;;;;;5089320;28;20422;-83
2022/06/10 11:35:38;;;;;;;1.80;0.80;;;22.50;72.10;;;;;;5089015;28;20417;-84
2022/06/10 11:38:06;;;;;;;10.30;1.30;;;22.20;73.10;;;;;;5069519;28;20780;-84
2022/06/10 11:40:35;;;;;;;5.87;1.53;;;22.30;71.80;;;;;;5069770;28;20549;-84
2022/06/10 11:43:12;;;;;;;2.10;0.90;;;22.10;72.00;;;;;;5069422;28;20435;-84
2022/06/10 11:45:49;;;;;;;3.40;1.37;;;22.00;72.00;;;;;;5069656;28;20405;-84
2022/06/10 11:48:53;;;;;;;2.47;0.90;;;21.90;72.80;;;;;;5069197;28;20432;-84
2022/06/10 11:51:29;;;;;;;4.10;1.33;;;21.90;73.20;;;;;;5053103;28;20828;-84
2022/06/10 11:54:18;;;;;;;8.80;1.33;;;22.10;74.40;;;;;;5090281;28;20416;-84
2022/06/10 12:00:14;;;;;;;2.80;1.10;;;23.30;73.40;;;;;;5069915;28;20476;-83
2022/06/10 12:02:46;;;;;;;3.57;0.70;;;23.70;68.80;;;;;;5069458;28;20414;-83
2022/06/10 12:05:19;;;;;;;4.07;1.10;;;23.50;69.60;;;;;;5068781;28;20400;-84
2022/06/10 12:07:56;;;;;;;1.67;0.80;;;23.80;69.10;;;;;;5069230;28;20419;-85
2022/06/10 12:10:27;;;;;;;2.70;0.83;;;24.00;66.60;;;;;;5069615;28;20403;-83
2022/06/10 12:12:55;;;;;;;3.77;1.10;;;24.00;68.10;;;;;;5069008;28;20406;-84
2022/06/10 12:15:24;;;;;;;5.63;1.30;;;24.00;67.80;;;;;;5069264;28;20418;-84
2022/06/10 12:17:54;;;;;;;3.30;1.40;;;24.10;70.90;;;;;;5051148;28;20502;-85
2022/06/10 12:20:32;;;;;;;1.73;0.80;;;24.70;64.80;;;;;;5069155;28;20969;-84
2022/06/10 12:23:01;;;;;;;6.80;0.70;;;24.70;65.40;;;;;;5069042;28;20430;-84
2022/06/10 12:25:34;;;;;;;6.87;0.80;;;25.10;61.80;;;;;;5069339;28;20515;-84
2022/06/10 12:28:18;;;;;;;4.67;1.10;;;24.90;62.80;;;;;;5069521;28;20852;-83
2022/06/10 12:30:48;;;;;;;7.10;1.30;;;24.90;63.30;;;;;;5069053;28;21054;-83
2022/06/10 12:33:52;;;;;;;2.83;0.80;;;24.70;64.00;;;;;;5069308;28;20440;-83
2022/06/10 12:36:30;;;;;;;4.83;0.80;;;24.20;65.40;;;;;;4997581;28;20459;-83
2022/06/10 12:38:57;;;;;;;2.07;0.93;;;24.30;68.30;;;;;;5069351;28;20510;-83
2022/06/10 12:41:40;;;;;;;3.80;0.87;;;24.40;68.50;;;;;;5069259;28;20465;-82
2022/06/10 12:44:17;;;;;;;3.00;1.50;;;24.70;67.60;;;;;;5069221;28;20405;-84
2022/06/10 12:46:49;;;;;;;3.40;1.13;;;25.00;64.60;;;;;;5070646;28;20476;-83
2022/06/10 12:49:33;;;;;;;2.93;1.07;;;25.30;62.60;;;;;;5073371;28;20486;-83
2022/06/10 12:52:11;;;;;;;2.93;1.17;;;25.00;64.50;;;;;;5080122;28;20414;-83
2022/06/10 12:54:39;;;;;;;2.00;0.90;;;24.80;63.80;;;;;;5093755;28;20489;-84
2022/06/10 12:57:28;;;;;;;2.60;0.90;;;24.80;61.60;;;;;;5088620;28;20410;-83
2022/06/10 13:00:22;;;;;;;6.13;1.47;;;24.70;66.10;;;;;;5061653;28;20470;-84
2022/06/10 13:03:11;;;;;;;2.50;0.93;;;24.70;61.80;;;;;;5072299;28;20410;-84
2022/06/10 13:05:37;;;;;;;2.30;1.00;;;24.80;63.50;;;;;;5071402;28;20438;-84
2022/06/10 13:08:22;;;;;;;5.97;1.00;;;24.80;65.60;;;;;;5072162;28;20415;-83
2022/06/10 13:10:56;;;;;;;1.87;0.80;;;24.20;62.50;;;;;;5072335;28;20204;-83
2022/06/10 13:13:23;;;;;;;5.10;1.00;;;23.30;61.50;;;;;;5072579;28;20877;-83
2022/06/10 13:15:54;;;;;;;3.17;1.10;;;23.10;64.00;;;;;;5072269;28;20903;-83
2022/06/10 13:18:30;;;;;;;5.13;1.10;;;23.30;65.00;;;;;;5072652;28;20395;-84
2022/06/10 13:21:05;;;;;;;1.93;0.90;;;23.40;64.70;;;;;;5072204;28;20531;-83
2022/06/10 13:24:07;;;;;;;2.23;0.97;;;23.40;66.90;;;;;;5072273;28;20820;-84
2022/06/10 13:26:33;;;;;;;3.77;1.33;;;23.50;66.60;;;;;;5071646;28;20429;-83
2022/06/10 13:29:05;;;;;;;2.93;0.87;;;23.70;64.60;;;;;;5072079;28;20429;-84
2022/06/10 13:31:30;;;;;;;3.93;1.20;;;24.30;61.60;;;;;;5072251;28;20454;-83
2022/06/10 13:34:01;;;;;;;2.83;1.10;;;24.40;61.80;;;;;;5072036;28;20447;-84
2022/06/10 13:36:32;;;;;;;7.37;1.00;;;24.40;61.80;;;;;;5071901;28;20207;-84